Time;durP1;ratioP1;P1;durP2;ratioP2;P2;SDS_P1;SDS_P2;PMS_P1;PMS_P2;Temp;Humidity;BMP_temperature;BMP_pressure;BME280_temperature;BME280_humidity;BME280_pressure;Samples;Min_cycle;Max_cycle;Signal;HPM_P1;HPM_P2
2022/12/08 00:01:38;;;;;;;7.53;5.15;;;8.60;99.90;;;;;;5112264;28;20058;-61
2022/12/08 00:04:04;;;;;;;7.50;4.82;;;8.60;99.90;;;;;;5112144;28;20088;-61
2022/12/08 00:09:38;;;;;;;7.90;4.97;;;8.70;99.90;;;;;;5111954;28;20035;-59
2022/12/08 00:12:07;;;;;;;8.00;4.70;;;8.80;99.90;;;;;;5112217;28;20361;-59
2022/12/08 00:14:35;;;;;;;9.18;5.30;;;8.80;99.90;;;;;;5112022;28;20024;-58
2022/12/08 00:17:02;;;;;;;7.35;4.90;;;8.90;99.90;;;;;;5111919;28;20024;-57
2022/12/08 00:19:28;;;;;;;7.63;5.18;;;8.90;99.90;;;;;;5111321;28;20020;-57
2022/12/08 00:21:54;;;;;;;10.93;5.68;;;8.90;99.90;;;;;;5111877;28;20027;-61
2022/12/08 00:24:23;;;;;;;8.15;5.10;;;8.90;99.90;;;;;;5111828;28;20035;-62
2022/12/08 00:26:49;;;;;;;7.18;5.38;;;8.80;99.90;;;;;;5111723;28;20092;-59
2022/12/08 00:29:16;;;;;;;7.35;5.28;;;8.80;99.90;;;;;;5111266;28;20028;-60
2022/12/08 00:31:41;;;;;;;8.82;5.85;;;8.80;99.90;;;;;;5111129;28;20051;-59
2022/12/08 00:34:07;;;;;;;8.18;5.07;;;8.80;99.90;;;;;;5111672;28;20051;-57
2022/12/08 00:36:33;;;;;;;7.53;4.95;;;8.70;99.90;;;;;;5111667;28;20552;-60
2022/12/08 00:38:59;;;;;;;8.15;5.20;;;8.70;99.90;;;;;;5111135;28;20027;-59
2022/12/08 00:44:13;;;;;;;7.93;4.90;;;8.70;99.90;;;;;;5111869;28;20035;-57
2022/12/08 00:46:39;;;;;;;8.15;5.20;;;8.70;99.90;;;;;;5111457;28;20140;-56
2022/12/08 00:49:05;;;;;;;7.45;4.70;;;8.60;99.90;;;;;;5111032;28;20024;-60
2022/12/08 00:51:32;;;;;;;8.75;5.07;;;8.60;99.90;;;;;;5111358;28;20485;-60
2022/12/08 00:53:57;;;;;;;7.20;4.72;;;8.60;99.90;;;;;;5111517;28;20026;-57
2022/12/08 00:56:23;;;;;;;8.48;5.00;;;8.50;99.90;;;;;;5111408;28;20024;-60
2022/12/08 00:58:49;;;;;;;7.45;5.18;;;8.50;99.90;;;;;;5110895;28;20477;-60
2022/12/08 01:01:15;;;;;;;8.80;5.43;;;8.50;99.90;;;;;;5111321;28;20096;-58
2022/12/08 01:03:41;;;;;;;6.78;5.00;;;8.50;99.90;;;;;;5111360;28;20477;-57
2022/12/08 01:06:08;;;;;;;8.20;5.05;;;8.50;99.90;;;;;;5111224;28;20054;-57
2022/12/08 01:08:36;;;;;;;7.15;4.78;;;8.50;99.90;;;;;;5110865;28;20023;-58
2022/12/08 01:11:28;;;;;;;7.10;5.00;;;8.60;99.90;;;;;;5109939;28;20024;-58
2022/12/08 01:13:54;;;;;;;7.13;4.90;;;8.70;99.90;;;;;;5109176;28;20054;-59
2022/12/08 01:16:27;;;;;;;6.45;4.75;;;8.70;99.90;;;;;;5111380;28;20016;-60
2022/12/08 01:18:53;;;;;;;6.88;4.82;;;8.80;99.90;;;;;;5110880;28;20032;-60
2022/12/08 01:21:19;;;;;;;8.23;5.05;;;8.70;99.90;;;;;;5111180;28;20030;-60
2022/12/08 01:23:45;;;;;;;6.57;4.68;;;8.80;99.90;;;;;;5111669;28;20069;-57
2022/12/08 01:26:13;;;;;;;6.88;4.70;;;8.80;99.80;;;;;;5110979;28;20026;-58
2022/12/08 01:28:39;;;;;;;9.27;5.60;;;8.80;99.80;;;;;;5110629;28;20380;-61
2022/12/08 01:31:11;;;;;;;10.70;6.03;;;8.80;99.80;;;;;;5111086;28;20020;-61
2022/12/08 01:33:37;;;;;;;6.35;5.00;;;8.70;99.80;;;;;;5109821;28;20024;-59
2022/12/08 01:36:04;;;;;;;8.95;5.15;;;8.70;99.80;;;;;;5111032;28;20031;-62
2022/12/08 01:38:30;;;;;;;7.30;4.97;;;8.70;99.80;;;;;;5110363;28;20485;-59
2022/12/08 01:40:56;;;;;;;8.45;4.75;;;8.70;99.90;;;;;;5111005;28;20036;-58
2022/12/08 01:43:22;;;;;;;8.15;4.57;;;8.60;99.90;;;;;;5112569;28;20031;-58
2022/12/08 01:45:47;;;;;;;9.27;5.00;;;8.60;99.90;;;;;;5114991;28;20385;-59
2022/12/08 01:48:25;;;;;;;19.23;9.15;;;8.60;99.90;;;;;;5114229;28;20028;-58
2022/12/08 01:50:54;;;;;;;24.23;10.32;;;8.50;99.90;;;;;;5114851;28;20107;-60
2022/12/08 01:53:25;;;;;;;28.90;11.60;;;8.50;99.90;;;;;;5114708;28;20028;-59
2022/12/08 01:55:55;;;;;;;11.93;6.53;;;8.50;99.90;;;;;;5114818;28;20030;-61
2022/12/08 01:58:31;;;;;;;11.55;6.57;;;8.50;99.90;;;;;;5114224;28;20020;-58
2022/12/08 02:00:56;;;;;;;11.52;6.07;;;8.50;99.90;;;;;;5114682;28;20032;-61
2022/12/08 02:03:30;;;;;;;11.60;5.93;;;8.40;99.90;;;;;;5114555;28;20026;-59
2022/12/08 02:05:57;;;;;;;11.07;6.30;;;8.40;99.90;;;;;;5114509;28;20048;-59
2022/12/08 02:08:24;;;;;;;8.82;5.60;;;8.50;99.80;;;;;;5113847;28;20038;-58
2022/12/08 02:10:53;;;;;;;9.63;6.35;;;8.50;99.70;;;;;;5114449;28;20016;-57
2022/12/08 02:13:21;;;;;;;12.00;5.38;;;8.60;99.60;;;;;;5114615;28;20388;-60
2022/12/08 02:15:57;;;;;;;10.68;5.97;;;8.60;99.50;;;;;;5114327;28;20015;-58
2022/12/08 02:18:25;;;;;;;10.00;5.95;;;8.60;99.40;;;;;;5113820;28;20058;-58
2022/12/08 02:21:22;;;;;;;11.80;6.03;;;8.70;99.40;;;;;;5114277;28;20020;-57
2022/12/08 02:23:57;;;;;;;10.75;5.68;;;8.60;99.40;;;;;;5099105;28;20031;-59
2022/12/08 02:26:40;;;;;;;9.15;5.07;;;8.70;99.50;;;;;;5114099;28;20024;-60
2022/12/08 02:29:15;;;;;;;8.88;4.88;;;8.70;99.50;;;;;;5113582;28;20027;-61
2022/12/08 02:32:07;;;;;;;8.30;5.13;;;8.70;99.50;;;;;;5112588;28;20473;-61
2022/12/08 02:34:55;;;;;;;8.15;4.93;;;8.60;99.50;;;;;;5113983;27;20485;-57
2022/12/08 02:37:50;;;;;;;8.82;5.13;;;8.60;99.60;;;;;;5113826;28;20497;-60
2022/12/08 02:40:20;;;;;;;;;;;8.60;99.60;;;;;;5075819;28;20161;-59
2022/12/08 02:43:10;;;;;;;10.75;5.15;;;8.50;99.60;;;;;;5114170;27;19983;-59
2022/12/08 02:45:45;;;;;;;7.47;5.10;;;8.50;99.60;;;;;;5113864;28;20374;-59
2022/12/08 02:48:11;;;;;;;7.47;5.15;;;8.50;99.60;;;;;;5113553;28;20355;-58
2022/12/08 02:50:36;;;;;;;7.45;4.65;;;8.50;99.60;;;;;;5113514;28;20476;-59
2022/12/08 02:53:02;;;;;;;8.45;4.95;;;8.40;99.60;;;;;;5113026;28;20115;-60
2022/12/08 02:56:12;;;;;;;7.45;4.65;;;8.40;99.60;;;;;;5113554;28;20024;-62
2022/12/08 02:58:55;;;;;;;8.57;5.10;;;8.40;99.60;;;;;;5069830;28;20526;-59
2022/12/08 03:02:02;;;;;;;8.00;4.70;;;8.40;99.60;;;;;;5109615;27;20470;-61
2022/12/08 03:05:00;;;;;;;6.53;4.90;;;8.30;99.60;;;;;;5113435;28;20031;-60
2022/12/08 03:07:56;;;;;;;10.05;5.30;;;8.30;99.50;;;;;;5107124;28;20497;-58
2022/12/08 03:10:29;;;;;;;7.75;4.85;;;8.40;99.50;;;;;;5113198;28;20046;-60
2022/12/08 03:12:59;;;;;;;6.55;4.40;;;8.50;99.40;;;;;;5113149;28;20038;-58
2022/12/08 03:15:26;;;;;;;8.73;4.45;;;8.60;99.60;;;;;;5113147;28;20572;-57
2022/12/08 03:17:56;;;;;;;7.13;4.53;;;8.60;99.20;;;;;;5112679;28;20020;-58
2022/12/08 03:20:25;;;;;;;8.73;4.80;;;8.60;99.20;;;;;;5112898;28;20111;-61
2022/12/08 03:22:54;;;;;;;7.28;4.65;;;8.60;99.20;;;;;;5113138;28;20405;-58
2022/12/08 03:25:22;;;;;;;6.50;4.75;;;8.60;99.50;;;;;;5112874;28;20393;-59
2022/12/08 03:27:49;;;;;;;6.00;4.43;;;8.60;99.10;;;;;;5112635;28;20118;-62
2022/12/08 03:30:15;;;;;;;6.78;4.40;;;8.60;99.10;;;;;;5112502;28;20035;-59
2022/12/08 03:32:48;;;;;;;7.57;4.55;;;8.60;99.10;;;;;;5112673;28;20049;-60
2022/12/08 03:35:20;;;;;;;6.20;4.53;;;8.50;99.40;;;;;;5111550;28;20098;-59
2022/12/08 03:37:46;;;;;;;6.43;4.05;;;8.50;99.10;;;;;;5112516;28;20108;-61
2022/12/08 03:40:15;;;;;;;7.10;4.88;;;8.50;99.10;;;;;;5112427;28;20061;-59
2022/12/08 03:42:41;;;;;;;6.93;4.20;;;8.50;99.20;;;;;;5111601;28;20035;-60
2022/12/08 03:45:07;;;;;;;8.05;4.97;;;8.40;99.20;;;;;;5112627;28;20027;-61
2022/12/08 03:47:32;;;;;;;7.35;4.40;;;8.40;99.20;;;;;;5112293;28;20094;-59
2022/12/08 03:49:58;;;;;;;7.10;4.28;;;8.40;99.20;;;;;;5111999;28;20020;-57
2022/12/08 03:52:23;;;;;;;8.25;4.60;;;8.30;99.20;;;;;;5112668;28;20046;-60
2022/12/08 03:54:49;;;;;;;5.80;4.20;;;8.40;99.20;;;;;;5112694;28;20131;-61
2022/12/08 03:57:15;;;;;;;6.32;3.92;;;8.30;99.20;;;;;;5112500;28;20026;-60
2022/12/08 03:59:40;;;;;;;7.00;4.10;;;8.30;99.20;;;;;;5111830;28;20469;-61
2022/12/08 04:02:06;;;;;;;7.45;3.95;;;8.30;99.20;;;;;;5112255;28;20085;-60
2022/12/08 04:04:31;;;;;;;6.95;4.13;;;8.30;99.20;;;;;;5110465;28;20028;-60
2022/12/08 04:06:57;;;;;;;6.80;4.13;;;8.30;99.30;;;;;;5111650;28;20409;-61
2022/12/08 04:09:23;;;;;;;6.18;4.20;;;8.30;99.20;;;;;;5111586;28;20111;-60
2022/12/08 04:11:48;;;;;;;5.60;3.90;;;8.40;99.10;;;;;;5112063;28;20469;-59
2022/12/08 04:14:14;;;;;;;6.70;4.18;;;8.50;98.90;;;;;;5112064;28;20103;-58
2022/12/08 04:16:40;;;;;;;7.10;4.30;;;8.50;98.70;;;;;;5111955;28;20423;-59
2022/12/08 04:19:05;;;;;;;7.25;4.05;;;8.50;98.70;;;;;;5110128;28;20098;-58
2022/12/08 04:21:31;;;;;;;7.00;4.25;;;8.50;98.60;;;;;;5111569;28;20027;-54
2022/12/08 04:23:57;;;;;;;5.50;3.72;;;8.50;98.70;;;;;;5111899;28;20444;-60
2022/12/08 04:26:22;;;;;;;5.40;3.88;;;8.50;99.10;;;;;;5111709;28;20032;-61
2022/12/08 04:28:48;;;;;;;8.30;4.60;;;8.50;98.70;;;;;;5111421;28;20108;-60
2022/12/08 04:31:13;;;;;;;6.20;4.45;;;8.50;98.70;;;;;;5111626;28;20489;-61
2022/12/08 04:33:39;;;;;;;6.22;3.97;;;8.50;98.70;;;;;;5111724;28;20015;-58
2022/12/08 04:36:06;;;;;;;5.07;3.70;;;8.40;98.70;;;;;;5111562;28;20406;-58
2022/12/08 04:38:32;;;;;;;6.80;3.92;;;8.50;98.80;;;;;;5109718;28;20031;-58
2022/12/08 04:40:58;;;;;;;5.72;3.80;;;8.40;98.80;;;;;;5111569;28;20042;-59
2022/12/08 04:43:24;;;;;;;6.70;4.18;;;8.40;98.80;;;;;;5111584;28;20099;-57
2022/12/08 04:45:50;;;;;;;6.32;4.00;;;8.30;98.80;;;;;;5111619;28;20031;-59
2022/12/08 04:48:16;;;;;;;6.65;4.22;;;8.30;98.80;;;;;;5110953;28;20027;-60
2022/12/08 04:50:43;;;;;;;5.68;4.13;;;8.30;98.90;;;;;;5110108;28;20520;-59
2022/12/08 04:53:10;;;;;;;6.13;4.18;;;8.30;98.90;;;;;;5111396;28;20020;-59
2022/12/08 04:55:43;;;;;;;5.97;4.00;;;8.30;98.90;;;;;;5111455;28;20076;-60
2022/12/08 04:58:19;;;;;;;5.95;3.97;;;8.20;98.90;;;;;;5110840;28;20417;-60
2022/12/08 05:00:46;;;;;;;6.68;3.90;;;8.20;98.90;;;;;;5111472;28;20028;-59
2022/12/08 05:03:13;;;;;;;5.13;3.78;;;8.20;98.90;;;;;;5111316;28;20063;-62
2022/12/08 05:05:39;;;;;;;5.68;4.30;;;8.20;99.30;;;;;;5111375;28;20069;-60
2022/12/08 05:08:05;;;;;;;5.88;3.97;;;8.20;98.90;;;;;;5109703;28;20040;-60
2022/12/08 05:10:31;;;;;;;7.50;4.28;;;8.30;98.80;;;;;;5110155;28;20034;-58
2022/12/08 05:12:58;;;;;;;5.35;3.88;;;8.30;98.70;;;;;;5109946;28;20069;-58
2022/12/08 05:15:24;;;;;;;6.65;3.80;;;8.40;98.60;;;;;;5111229;28;20076;-60
2022/12/08 05:17:50;;;;;;;6.75;3.67;;;8.40;98.50;;;;;;5114145;28;20460;-60
2022/12/08 05:20:16;;;;;;;6.00;3.85;;;8.40;98.50;;;;;;5115368;28;20066;-60
2022/12/08 05:22:41;;;;;;;4.93;3.38;;;8.40;98.50;;;;;;5115493;28;20497;-60
2022/12/08 05:25:07;;;;;;;5.80;3.83;;;8.40;98.40;;;;;;5115331;28;20027;-61
2022/12/08 05:27:33;;;;;;;6.20;4.05;;;8.40;98.40;;;;;;5115190;28;20031;-57
2022/12/08 05:29:59;;;;;;;6.70;3.72;;;8.50;98.40;;;;;;5113564;28;20023;-59
2022/12/08 05:32:25;;;;;;;6.53;3.70;;;8.50;98.40;;;;;;5113660;28;20031;-58
2022/12/08 05:34:50;;;;;;;5.57;3.72;;;8.40;98.40;;;;;;5115130;28;20024;-61
2022/12/08 05:37:16;;;;;;;5.50;4.00;;;8.40;98.40;;;;;;5115184;28;20089;-60
2022/12/08 05:39:42;;;;;;;5.43;3.85;;;8.40;98.50;;;;;;5114579;28;20047;-59
2022/12/08 05:42:07;;;;;;;6.50;3.88;;;8.30;98.40;;;;;;5114990;28;20027;-59
2022/12/08 05:44:33;;;;;;;4.28;3.40;;;8.30;98.40;;;;;;5114980;28;20027;-59
2022/12/08 05:46:58;;;;;;;5.05;3.55;;;8.30;98.50;;;;;;5114723;28;20063;-58
2022/12/08 05:49:24;;;;;;;4.97;3.65;;;8.20;98.50;;;;;;5114372;28;20024;-58
2022/12/08 05:51:50;;;;;;;5.57;4.03;;;8.20;98.40;;;;;;5114867;28;20031;-58
2022/12/08 05:54:15;;;;;;;5.00;3.70;;;8.20;98.40;;;;;;5114784;28;20414;-57
2022/12/08 05:56:41;;;;;;;6.53;4.10;;;8.10;98.40;;;;;;5114728;28;20102;-58
2022/12/08 05:59:07;;;;;;;5.55;4.43;;;8.10;98.50;;;;;;5114114;28;20023;-60
2022/12/08 06:01:33;;;;;;;7.00;4.32;;;8.10;98.50;;;;;;5114547;28;20020;-60
2022/12/08 06:04:00;;;;;;;8.27;4.28;;;8.10;98.50;;;;;;5114540;28;20161;-61
2022/12/08 06:06:27;;;;;;;8.77;4.88;;;8.10;98.50;;;;;;5114347;27;20494;-61
2022/12/08 06:08:53;;;;;;;5.45;4.05;;;8.10;98.50;;;;;;5113967;28;20527;-58
2022/12/08 06:11:18;;;;;;;6.13;4.43;;;8.20;98.40;;;;;;5114460;28;20032;-57
2022/12/08 06:13:44;;;;;;;9.25;4.70;;;8.30;98.20;;;;;;5114408;28;20038;-59
2022/12/08 06:16:09;;;;;;;7.38;4.32;;;8.30;98.20;;;;;;5114120;28;20019;-58
2022/12/08 06:18:35;;;;;;;7.55;4.50;;;8.30;98.10;;;;;;5113930;28;20026;-59
2022/12/08 06:21:06;;;;;;;7.57;4.85;;;8.30;98.10;;;;;;5114459;28;20019;-60
2022/12/08 06:23:32;;;;;;;6.75;4.57;;;8.40;98.10;;;;;;5114275;28;20025;-61
2022/12/08 06:26:05;;;;;;;7.07;4.82;;;8.40;98.00;;;;;;5113124;28;20102;-58
2022/12/08 06:28:31;;;;;;;7.60;4.70;;;8.40;98.00;;;;;;5112481;28;20019;-60
2022/12/08 06:30:57;;;;;;;8.77;5.50;;;8.30;98.00;;;;;;5114193;28;20484;-59
2022/12/08 06:33:23;;;;;;;10.98;6.70;;;8.30;98.00;;;;;;5114005;28;20023;-60
2022/12/08 06:35:49;;;;;;;21.88;13.93;;;8.30;98.00;;;;;;5114024;28;20095;-61
2022/12/08 06:38:15;;;;;;;25.50;16.05;;;8.30;98.00;;;;;;5113525;28;20123;-56
2022/12/08 06:40:40;;;;;;;23.42;15.35;;;8.20;98.10;;;;;;5113978;28;20032;-60
2022/12/08 06:43:06;;;;;;;16.85;10.80;;;8.20;98.10;;;;;;5113197;28;20035;-60
2022/12/08 06:45:31;;;;;;;18.30;12.35;;;8.10;98.10;;;;;;5113861;28;20073;-58
2022/12/08 06:47:57;;;;;;;14.80;10.35;;;8.10;98.20;;;;;;5113615;28;20515;-61
2022/12/08 06:50:23;;;;;;;18.05;10.63;;;8.10;98.20;;;;;;5114120;28;20106;-57
2022/12/08 06:52:48;;;;;;;16.52;10.23;;;8.10;98.30;;;;;;5113535;28;20118;-59
2022/12/08 06:55:14;;;;;;;15.15;9.98;;;8.10;98.30;;;;;;5113594;28;20102;-59
2022/12/08 06:57:40;;;;;;;17.77;10.85;;;8.00;98.20;;;;;;5113427;28;20391;-59
2022/12/08 07:00:06;;;;;;;14.10;8.70;;;8.00;98.30;;;;;;5113021;28;20537;-60
2022/12/08 07:02:32;;;;;;;15.70;8.85;;;8.00;98.30;;;;;;5113511;28;20032;-60
2022/12/08 07:04:57;;;;;;;13.63;9.10;;;8.00;98.30;;;;;;5113408;28;20500;-59
2022/12/08 07:07:23;;;;;;;14.02;9.93;;;8.00;98.20;;;;;;5113191;28;20315;-59
2022/12/08 07:09:49;;;;;;;14.93;9.20;;;8.10;98.20;;;;;;5112867;28;20031;-59
2022/12/08 07:12:14;;;;;;;13.68;8.57;;;8.20;98.10;;;;;;5113362;28;20020;-61
2022/12/08 07:14:40;;;;;;;11.82;8.40;;;8.30;98.00;;;;;;5111870;28;20409;-57
2022/12/08 07:17:06;;;;;;;14.05;9.18;;;8.30;97.90;;;;;;5113067;28;20495;-60
2022/12/08 07:19:31;;;;;;;15.18;9.10;;;8.30;97.90;;;;;;5112560;28;20032;-60
2022/12/08 07:21:57;;;;;;;14.32;9.10;;;8.30;97.80;;;;;;5112938;28;20077;-61
2022/12/08 07:24:22;;;;;;;12.38;8.57;;;8.30;97.80;;;;;;5113026;28;20103;-58
2022/12/08 07:26:48;;;;;;;15.82;8.90;;;8.30;97.80;;;;;;5112879;28;20473;-57
2022/12/08 07:29:14;;;;;;;12.10;7.95;;;8.30;97.80;;;;;;5111001;28;20030;-61
2022/12/08 07:31:39;;;;;;;12.40;8.10;;;8.30;97.70;;;;;;5111509;28;20403;-59
2022/12/08 07:34:05;;;;;;;11.43;8.18;;;8.30;97.80;;;;;;5112810;28;20107;-58
2022/12/08 07:36:31;;;;;;;12.35;8.07;;;8.20;97.80;;;;;;5112573;28;20076;-57
2022/12/08 07:38:57;;;;;;;11.23;7.43;;;8.20;97.90;;;;;;5112134;28;20076;-59
2022/12/08 07:41:24;;;;;;;11.48;7.75;;;8.20;97.90;;;;;;5111431;28;20027;-57
2022/12/08 07:43:52;;;;;;;11.48;7.55;;;8.20;97.90;;;;;;5111620;28;20055;-60
2022/12/08 07:46:20;;;;;;;11.95;7.30;;;8.10;97.90;;;;;;5112730;28;20032;-58
2022/12/08 07:48:45;;;;;;;10.10;7.53;;;8.10;97.90;;;;;;5112083;27;20015;-58
2022/12/08 07:51:13;;;;;;;11.10;7.30;;;8.00;97.90;;;;;;5112662;28;20031;-60
2022/12/08 07:53:40;;;;;;;10.27;6.88;;;8.00;97.90;;;;;;5112436;28;20023;-61
2022/12/08 07:56:07;;;;;;;11.77;7.15;;;8.00;97.90;;;;;;5112469;28;20022;-62
2022/12/08 07:58:33;;;;;;;13.60;7.88;;;8.00;97.90;;;;;;5111739;28;20094;-62
2022/12/08 08:00:58;;;;;;;13.60;7.35;;;8.00;98.00;;;;;;5112368;28;20108;-60
2022/12/08 08:03:24;;;;;;;10.70;7.10;;;8.00;98.00;;;;;;5112253;28;20464;-61
2022/12/08 08:05:51;;;;;;;10.05;6.78;;;8.00;98.10;;;;;;5112257;28;20456;-59
2022/12/08 08:08:17;;;;;;;9.55;6.68;;;7.90;98.10;;;;;;5111609;28;20040;-59
2022/12/08 08:10:43;;;;;;;11.05;7.07;;;8.00;98.20;;;;;;5112089;28;20112;-60
2022/12/08 08:13:09;;;;;;;11.35;7.55;;;8.00;98.30;;;;;;5111863;28;20031;-60
2022/12/08 08:15:35;;;;;;;11.70;7.03;;;8.00;98.30;;;;;;5112050;28;20020;-57
2022/12/08 08:18:00;;;;;;;11.80;7.15;;;8.00;98.30;;;;;;5111459;28;20172;-61
2022/12/08 08:20:26;;;;;;;11.60;7.15;;;8.00;98.40;;;;;;5112028;28;20106;-60
2022/12/08 08:22:52;;;;;;;10.57;6.93;;;8.00;98.40;;;;;;5111880;28;20087;-59
2022/12/08 08:25:21;;;;;;;10.80;6.65;;;8.00;98.40;;;;;;5111918;28;20023;-59
2022/12/08 08:27:47;;;;;;;11.48;6.93;;;8.00;98.40;;;;;;5111520;28;20030;-61
2022/12/08 08:30:13;;;;;;;10.75;6.88;;;8.00;98.40;;;;;;5111431;28;20019;-61
2022/12/08 08:32:39;;;;;;;10.65;6.72;;;8.10;98.50;;;;;;5111651;27;20046;-61
2022/12/08 08:35:05;;;;;;;10.27;6.35;;;8.10;98.50;;;;;;5111909;28;20473;-59
2022/12/08 08:37:30;;;;;;;9.30;6.40;;;8.10;98.50;;;;;;5111528;28;20091;-60
2022/12/08 08:39:56;;;;;;;10.80;6.55;;;8.10;98.50;;;;;;5111145;28;20089;-60
2022/12/08 08:42:22;;;;;;;9.20;6.38;;;8.10;98.50;;;;;;5111480;28;20039;-59
2022/12/08 08:44:48;;;;;;;11.38;6.45;;;8.10;98.50;;;;;;5111667;28;20110;-59
2022/12/08 08:47:13;;;;;;;9.10;6.25;;;8.20;98.60;;;;;;5111541;28;20432;-59
2022/12/08 08:49:39;;;;;;;9.43;5.97;;;8.20;98.60;;;;;;5111071;28;20091;-59
2022/12/08 08:52:05;;;;;;;9.70;6.57;;;8.20;98.60;;;;;;5111397;28;20444;-58
2022/12/08 08:54:31;;;;;;;9.82;6.60;;;8.20;98.60;;;;;;5110212;28;20106;-59
2022/12/08 08:56:59;;;;;;;8.40;5.70;;;8.20;98.60;;;;;;5111389;28;20114;-58
2022/12/08 08:59:25;;;;;;;9.85;6.18;;;8.20;98.60;;;;;;5110952;28;20023;-60
2022/12/08 09:01:52;;;;;;;8.30;6.00;;;8.20;98.60;;;;;;5111515;28;20035;-58
2022/12/08 09:04:17;;;;;;;7.82;5.45;;;8.20;98.60;;;;;;5111477;28;20055;-60
2022/12/08 09:06:44;;;;;;;7.72;5.50;;;8.30;98.70;;;;;;5111441;28;20039;-59
2022/12/08 09:09:10;;;;;;;9.60;5.72;;;8.30;98.70;;;;;;5110917;28;20027;-58
2022/12/08 09:11:36;;;;;;;9.43;5.28;;;8.30;98.70;;;;;;5111331;28;20019;-60
2022/12/08 09:14:02;;;;;;;9.07;5.85;;;8.30;98.70;;;;;;5111578;28;20035;-58
2022/12/08 09:16:28;;;;;;;6.80;4.93;;;8.40;98.70;;;;;;5111737;28;20237;-58
2022/12/08 09:18:53;;;;;;;7.78;5.40;;;8.40;98.80;;;;;;5111107;28;20340;-58
2022/12/08 09:21:22;;;;;;;9.65;5.47;;;8.40;98.70;;;;;;5111342;28;20030;-60
2022/12/08 09:23:49;;;;;;;8.27;5.47;;;8.40;98.70;;;;;;5111580;28;20032;-60
2022/12/08 09:26:15;;;;;;;10.55;6.10;;;8.40;99.10;;;;;;5111537;28;20024;-57
2022/12/08 09:28:45;;;;;;;8.38;5.57;;;8.50;98.80;;;;;;5111492;28;20034;-57
2022/12/08 09:31:14;;;;;;;7.95;4.85;;;8.50;98.70;;;;;;5111669;28;20031;-60
2022/12/08 09:33:40;;;;;;;7.93;5.38;;;8.50;98.80;;;;;;5111525;28;20035;-59
2022/12/08 09:36:06;;;;;;;7.88;5.13;;;8.50;98.70;;;;;;5111471;28;20510;-59
2022/12/08 09:38:32;;;;;;;8.00;5.38;;;8.60;98.80;;;;;;5111038;28;20051;-57
2022/12/08 09:40:59;;;;;;;7.78;5.05;;;8.60;98.80;;;;;;5111635;28;20108;-58
2022/12/08 09:43:30;;;;;;;8.98;5.47;;;8.60;98.80;;;;;;5111200;28;20395;-59
2022/12/08 09:45:57;;;;;;;6.60;4.95;;;8.60;98.80;;;;;;5112260;28;20034;-60
2022/12/08 09:48:30;;;;;;;6.28;4.45;;;8.60;98.80;;;;;;5111557;28;20031;-58
2022/12/08 09:50:57;;;;;;;7.33;5.20;;;8.70;98.80;;;;;;5111793;28;20489;-58
2022/12/08 09:53:31;;;;;;;7.50;5.05;;;8.70;98.70;;;;;;5112085;28;20368;-60
2022/12/08 09:55:59;;;;;;;5.93;4.67;;;8.70;98.70;;;;;;5112252;28;20031;-57
2022/12/08 09:58:47;;;;;;;6.97;4.55;;;8.80;98.80;;;;;;5111854;28;20028;-55
2022/12/08 10:01:13;;;;;;;6.53;4.65;;;8.70;98.70;;;;;;5112449;28;20035;-60
2022/12/08 10:03:40;;;;;;;6.00;4.35;;;8.80;98.70;;;;;;5114016;28;20031;-57
2022/12/08 10:06:24;;;;;;;7.65;4.70;;;8.80;99.00;;;;;;5116669;28;20114;-56
2022/12/08 10:09:08;;;;;;;8.20;4.43;;;8.80;98.70;;;;;;5115392;28;20032;-59
2022/12/08 10:11:45;;;;;;;6.15;4.20;;;8.90;98.70;;;;;;5116003;28;20397;-59
2022/12/08 10:14:33;;;;;;;6.75;4.25;;;8.90;98.70;;;;;;5116337;28;20024;-60
2022/12/08 10:17:22;;;;;;;5.22;3.83;;;8.90;98.70;;;;;;5116230;28;20461;-59
2022/12/08 10:19:49;;;;;;;8.50;5.80;;;8.90;98.30;;;;;;5113993;28;20032;-63
2022/12/08 10:22:23;;;;;;;8.60;5.35;;;8.70;96.60;;;;;;5114432;28;20032;-62
2022/12/08 10:25:15;;;;;;;8.15;5.53;;;8.70;97.00;;;;;;5114336;28;20031;-63
2022/12/08 10:27:41;;;;;;;8.27;5.30;;;8.60;97.40;;;;;;5114020;28;20027;-63
2022/12/08 10:30:15;;;;;;;8.60;5.00;;;8.70;97.80;;;;;;5113567;28;20027;-61
2022/12/08 10:32:45;;;;;;;8.55;5.68;;;8.80;98.00;;;;;;5114003;28;20500;-61
2022/12/08 10:35:13;;;;;;;7.10;5.22;;;8.80;98.00;;;;;;5114074;28;20077;-62
2022/12/08 10:37:39;;;;;;;8.27;5.18;;;8.90;98.10;;;;;;5113933;28;20481;-63
2022/12/08 10:40:14;;;;;;;8.85;5.35;;;9.00;98.10;;;;;;5113592;28;20035;-64
2022/12/08 10:42:45;;;;;;;7.18;4.88;;;9.00;98.20;;;;;;5114085;28;20020;-63
2022/12/08 10:45:22;;;;;;;8.38;4.70;;;9.10;98.20;;;;;;5114614;28;20385;-64
2022/12/08 10:47:59;;;;;;;7.30;4.90;;;9.20;98.20;;;;;;5114991;28;20023;-63
2022/12/08 10:50:35;;;;;;;7.93;4.55;;;9.20;98.50;;;;;;5115005;28;20027;-63
2022/12/08 10:53:06;;;;;;;6.78;4.63;;;9.30;98.10;;;;;;5114621;28;20016;-64
2022/12/08 10:55:45;;;;;;;6.82;4.78;;;9.30;98.10;;;;;;5114705;28;20030;-62
2022/12/08 10:58:34;;;;;;;6.00;4.18;;;9.40;98.10;;;;;;5113366;28;20027;-60
2022/12/08 11:01:24;;;;;;;6.45;4.78;;;9.40;98.00;;;;;;5113591;28;20104;-61
2022/12/08 11:03:59;;;;;;;6.55;4.40;;;9.40;98.00;;;;;;5113534;28;20024;-61
2022/12/08 11:06:39;;;;;;;6.55;4.18;;;9.50;98.00;;;;;;5113278;27;20019;-61
2022/12/08 11:09:17;;;;;;;6.13;4.13;;;9.50;98.00;;;;;;5112809;28;20028;-62
2022/12/08 11:11:56;;;;;;;5.85;3.78;;;9.60;98.00;;;;;;5113231;28;20027;-61
2022/12/08 11:14:23;;;;;;;7.05;4.35;;;9.60;98.00;;;;;;5112913;28;20020;-62
2022/12/08 11:16:55;;;;;;;5.82;4.13;;;9.60;97.90;;;;;;5113154;28;20034;-61
2022/12/08 11:19:26;;;;;;;6.20;3.90;;;9.60;97.90;;;;;;5112645;28;20024;-59
2022/12/08 11:21:52;;;;;;;5.15;3.72;;;9.60;97.90;;;;;;5113215;28;20080;-59
2022/12/08 11:24:25;;;;;;;5.88;4.05;;;9.60;97.90;;;;;;5113012;28;20102;-57
2022/12/08 11:26:55;;;;;;;5.95;3.95;;;9.70;97.90;;;;;;5113092;28;20099;-59
2022/12/08 11:29:21;;;;;;;5.55;3.80;;;9.70;97.90;;;;;;5112796;28;20443;-58
2022/12/08 11:31:55;;;;;;;5.15;3.92;;;9.70;97.90;;;;;;5111564;28;20035;-59
2022/12/08 11:34:38;;;;;;;5.68;3.50;;;9.70;97.90;;;;;;5112955;28;20485;-59
2022/12/08 11:37:07;;;;;;;4.65;3.53;;;9.70;98.20;;;;;;5112805;28;20028;-56
2022/12/08 11:39:37;;;;;;;6.45;3.33;;;9.70;97.80;;;;;;5112217;27;20489;-59
2022/12/08 11:42:06;;;;;;;5.90;3.83;;;9.70;97.80;;;;;;5112738;28;20043;-58
2022/12/08 11:44:41;;;;;;;4.28;3.35;;;9.70;97.80;;;;;;5112685;28;20032;-54
2022/12/08 11:47:22;;;;;;;;;;;9.70;97.80;;;;;;5112966;28;20032;-55
2022/12/08 11:50:01;;;;;;;5.75;3.53;;;9.70;97.80;;;;;;5112154;28;19910;-59
2022/12/08 11:52:31;;;;;;;5.75;3.97;;;9.60;97.70;;;;;;5112506;28;20092;-58
2022/12/08 11:55:33;;;;;;;4.72;3.22;;;9.60;97.80;;;;;;5112503;28;20090;-58
2022/12/08 11:58:20;;;;;;;4.97;3.42;;;9.60;97.80;;;;;;5111906;28;20035;-56
2022/12/08 12:00:46;;;;;;;4.75;3.10;;;9.60;97.80;;;;;;5112468;28;20032;-55
2022/12/08 12:03:28;;;;;;;5.07;3.10;;;9.60;97.80;;;;;;5112707;28;20027;-57
2022/12/08 12:06:12;;;;;;;5.07;3.47;;;9.50;97.80;;;;;;5112251;27;20024;-57
2022/12/08 12:09:02;;;;;;;4.78;3.17;;;9.50;97.90;;;;;;5111741;28;20066;-54
2022/12/08 12:14:46;;;;;;;4.95;3.47;;;9.40;97.90;;;;;;5112132;28;20043;-57
2022/12/08 12:17:42;;;;;;;3.97;3.00;;;9.40;97.90;;;;;;5111975;28;20030;-54
2022/12/08 12:20:20;;;;;;;5.85;3.25;;;9.40;98.00;;;;;;5111566;28;20076;-56
2022/12/08 12:22:51;;;;;;;4.72;3.03;;;9.40;98.00;;;;;;5111836;28;20084;-56
2022/12/08 12:25:20;;;;;;;5.43;3.45;;;9.30;98.00;;;;;;5111894;28;20058;-54
2022/12/08 12:27:48;;;;;;;3.50;3.00;;;9.30;98.00;;;;;;5111083;28;20481;-57
2022/12/08 12:30:23;;;;;;;5.10;3.53;;;9.30;98.10;;;;;;5111506;28;20035;-55
2022/12/08 12:32:57;;;;;;;4.57;3.22;;;9.20;98.10;;;;;;5111806;28;20024;-55
2022/12/08 12:35:41;;;;;;;4.23;3.17;;;9.20;98.10;;;;;;5112074;28;20030;-57
2022/12/08 12:41:44;;;;;;;5.03;3.00;;;9.20;98.20;;;;;;5111090;28;20034;-58
2022/12/08 12:44:13;;;;;;;5.10;3.13;;;9.20;98.20;;;;;;5105837;28;20035;-55
2022/12/08 12:46:44;;;;;;;4.63;2.88;;;9.20;98.20;;;;;;5111474;28;20473;-58
2022/12/08 12:49:38;;;;;;;4.88;2.97;;;9.10;98.20;;;;;;5111134;28;20027;-55
2022/12/08 12:52:16;;;;;;;5.50;3.33;;;9.10;98.20;;;;;;5111444;28;20024;-55
2022/12/08 12:55:02;;;;;;;4.57;3.08;;;9.10;98.30;;;;;;5111544;28;20064;-58
2022/12/08 12:57:52;;;;;;;4.13;2.88;;;9.10;98.30;;;;;;5111254;28;20032;-57
2022/12/08 13:00:21;;;;;;;3.88;2.80;;;9.10;98.30;;;;;;5106000;28;20032;-56
2022/12/08 13:02:48;;;;;;;5.95;3.28;;;9.10;98.30;;;;;;5111410;28;20023;-54
2022/12/08 13:05:22;;;;;;;3.42;2.50;;;9.10;98.30;;;;;;5111384;28;20028;-54
2022/12/08 13:07:54;;;;;;;5.38;3.17;;;9.10;98.30;;;;;;5111135;28;20023;-58
2022/12/08 13:10:33;;;;;;;4.00;2.90;;;9.00;98.30;;;;;;5111226;28;20026;-53
2022/12/08 13:13:16;;;;;;;4.07;3.10;;;9.00;98.30;;;;;;5109973;28;20016;-55
2022/12/08 13:15:45;;;;;;;4.50;3.13;;;9.00;98.40;;;;;;5111424;28;20028;-57
2022/12/08 13:18:26;;;;;;;5.97;3.72;;;9.00;98.40;;;;;;5110691;28;20742;-55
2022/12/08 13:21:09;;;;;;;3.90;2.80;;;9.00;98.40;;;;;;5109901;28;20123;-54
2022/12/08 13:23:45;;;;;;;4.43;3.15;;;9.00;98.40;;;;;;5111304;28;20093;-56